sensor_id;sensor_type;location;lat;lon;timestamp;temperature;humidity
64997;SHT31;51545;51.568;6.998;2022-11-11T00:01:41;9.63;87.89
64997;SHT31;51545;51.568;6.998;2022-11-11T00:04:07;9.63;87.98
64997;SHT31;51545;51.568;6.998;2022-11-11T00:06:32;9.53;88.36
64997;SHT31;51545;51.568;6.998;2022-11-11T00:08:58;9.52;88.55
64997;SHT31;51545;51.568;6.998;2022-11-11T00:11:23;9.57;88.46
64997;SHT31;51545;51.568;6.998;2022-11-11T00:13:49;9.52;88.52
64997;SHT31;51545;51.568;6.998;2022-11-11T00:18:44;9.43;88.97
64997;SHT31;51545;51.568;6.998;2022-11-11T00:21:29;9.43;89.03
64997;SHT31;51545;51.568;6.998;2022-11-11T00:24:26;9.52;88.66
64997;SHT31;51545;51.568;6.998;2022-11-11T00:27:12;9.53;88.57
64997;SHT31;51545;51.568;6.998;2022-11-11T00:29:44;9.52;88.71
64997;SHT31;51545;51.568;6.998;2022-11-11T00:32:11;9.50;88.77
64997;SHT31;51545;51.568;6.998;2022-11-11T00:34:55;9.48;88.91
64997;SHT31;51545;51.568;6.998;2022-11-11T00:37:41;9.40;89.21
64997;SHT31;51545;51.568;6.998;2022-11-11T00:40:08;9.39;89.26
64997;SHT31;51545;51.568;6.998;2022-11-11T00:42:35;9.38;89.30
64997;SHT31;51545;51.568;6.998;2022-11-11T00:45:01;9.39;89.32
64997;SHT31;51545;51.568;6.998;2022-11-11T00:47:27;9.40;89.28
64997;SHT31;51545;51.568;6.998;2022-11-11T00:50:25;9.35;89.39
64997;SHT31;51545;51.568;6.998;2022-11-11T00:53:15;9.31;89.59
64997;SHT31;51545;51.568;6.998;2022-11-11T00:55:42;9.32;89.57
64997;SHT31;51545;51.568;6.998;2022-11-11T00:58:08;9.35;89.47
64997;SHT31;51545;51.568;6.998;2022-11-11T01:00:33;9.34;89.59
64997;SHT31;51545;51.568;6.998;2022-11-11T01:02:59;9.32;89.53
64997;SHT31;51545;51.568;6.998;2022-11-11T01:05:25;9.36;89.28
64997;SHT31;51545;51.568;6.998;2022-11-11T01:07:50;9.32;89.43
64997;SHT31;51545;51.568;6.998;2022-11-11T01:10:17;9.28;89.62
64997;SHT31;51545;51.568;6.998;2022-11-11T01:13:02;9.25;89.83
64997;SHT31;51545;51.568;6.998;2022-11-11T01:15:38;9.28;89.61
64997;SHT31;51545;51.568;6.998;2022-11-11T01:18:05;9.28;89.68
64997;SHT31;51545;51.568;6.998;2022-11-11T01:20:31;9.21;89.82
64997;SHT31;51545;51.568;6.998;2022-11-11T01:22:57;9.22;89.88
64997;SHT31;51545;51.568;6.998;2022-11-11T01:25:23;9.20;89.89
64997;SHT31;51545;51.568;6.998;2022-11-11T01:27:48;9.17;90.02
64997;SHT31;51545;51.568;6.998;2022-11-11T01:30:14;9.17;89.99
64997;SHT31;51545;51.568;6.998;2022-11-11T01:32:40;9.20;90.06
64997;SHT31;51545;51.568;6.998;2022-11-11T01:35:05;9.15;90.19
64997;SHT31;51545;51.568;6.998;2022-11-11T01:37:31;9.15;90.21
64997;SHT31;51545;51.568;6.998;2022-11-11T01:39:57;9.12;90.18
64997;SHT31;51545;51.568;6.998;2022-11-11T01:42:23;9.18;90.14
64997;SHT31;51545;51.568;6.998;2022-11-11T01:44:48;9.17;90.05
64997;SHT31;51545;51.568;6.998;2022-11-11T01:47:14;9.14;90.08
64997;SHT31;51545;51.568;6.998;2022-11-11T01:52:26;9.21;89.79
64997;SHT31;51545;51.568;6.998;2022-11-11T01:55:09;9.18;89.80
64997;SHT31;51545;51.568;6.998;2022-11-11T01:57:40;9.25;89.69
64997;SHT31;51545;51.568;6.998;2022-11-11T02:00:15;9.24;89.64
64997;SHT31;51545;51.568;6.998;2022-11-11T02:02:54;9.22;89.53
64997;SHT31;51545;51.568;6.998;2022-11-11T02:05:31;9.27;89.41
64997;SHT31;51545;51.568;6.998;2022-11-11T02:10:58;9.28;89.19
64997;SHT31;51545;51.568;6.998;2022-11-11T02:13:31;9.32;89.13
64997;SHT31;51545;51.568;6.998;2022-11-11T02:16:16;9.25;89.32
64997;SHT31;51545;51.568;6.998;2022-11-11T02:18:42;9.27;89.37
64997;SHT31;51545;51.568;6.998;2022-11-11T02:21:12;9.28;89.25
64997;SHT31;51545;51.568;6.998;2022-11-11T02:23:57;9.27;89.27
64997;SHT31;51545;51.568;6.998;2022-11-11T02:26:25;9.25;89.13
64997;SHT31;51545;51.568;6.998;2022-11-11T02:28:54;9.31;89.19
64997;SHT31;51545;51.568;6.998;2022-11-11T02:31:24;9.36;88.98
64997;SHT31;51545;51.568;6.998;2022-11-11T02:33:52;9.34;88.99
64997;SHT31;51545;51.568;6.998;2022-11-11T02:36:18;9.32;89.01
64997;SHT31;51545;51.568;6.998;2022-11-11T02:38:43;9.29;89.19
64997;SHT31;51545;51.568;6.998;2022-11-11T02:41:09;9.21;89.41
64997;SHT31;51545;51.568;6.998;2022-11-11T02:43:53;9.24;89.37
64997;SHT31;51545;51.568;6.998;2022-11-11T02:46:18;9.21;89.39
64997;SHT31;51545;51.568;6.998;2022-11-11T02:48:44;9.17;89.45
64997;SHT31;51545;51.568;6.998;2022-11-11T02:51:09;9.20;89.31
64997;SHT31;51545;51.568;6.998;2022-11-11T02:53:35;9.17;89.32
64997;SHT31;51545;51.568;6.998;2022-11-11T02:56:00;9.15;89.39
64997;SHT31;51545;51.568;6.998;2022-11-11T02:58:26;9.20;89.27
64997;SHT31;51545;51.568;6.998;2022-11-11T03:00:51;9.15;89.36
64997;SHT31;51545;51.568;6.998;2022-11-11T03:03:16;9.10;89.55
64997;SHT31;51545;51.568;6.998;2022-11-11T03:05:42;9.08;89.61
64997;SHT31;51545;51.568;6.998;2022-11-11T03:08:07;9.04;89.63
64997;SHT31;51545;51.568;6.998;2022-11-11T03:10:33;9.07;89.61
64997;SHT31;51545;51.568;6.998;2022-11-11T03:12:58;9.07;89.59
64997;SHT31;51545;51.568;6.998;2022-11-11T03:15:24;9.00;89.89
64997;SHT31;51545;51.568;6.998;2022-11-11T03:17:49;8.94;90.10
64997;SHT31;51545;51.568;6.998;2022-11-11T03:20:16;8.97;90.01
64997;SHT31;51545;51.568;6.998;2022-11-11T03:23:02;9.03;90.03
64997;SHT31;51545;51.568;6.998;2022-11-11T03:25:39;8.99;89.95
64997;SHT31;51545;51.568;6.998;2022-11-11T03:28:10;8.93;90.14
64997;SHT31;51545;51.568;6.998;2022-11-11T03:30:38;8.84;90.43
64997;SHT31;51545;51.568;6.998;2022-11-11T03:33:05;8.89;90.38
64997;SHT31;51545;51.568;6.998;2022-11-11T03:35:31;8.81;90.61
64997;SHT31;51545;51.568;6.998;2022-11-11T03:37:57;8.80;90.61
64997;SHT31;51545;51.568;6.998;2022-11-11T03:40:47;8.73;90.64
64997;SHT31;51545;51.568;6.998;2022-11-11T03:43:15;8.70;90.76
64997;SHT31;51545;51.568;6.998;2022-11-11T03:45:42;8.66;90.92
64997;SHT31;51545;51.568;6.998;2022-11-11T03:48:08;8.62;90.94
64997;SHT31;51545;51.568;6.998;2022-11-11T03:50:34;8.62;91.22
64997;SHT31;51545;51.568;6.998;2022-11-11T03:53:00;8.65;91.20
64997;SHT31;51545;51.568;6.998;2022-11-11T03:55:26;8.62;91.13
64997;SHT31;51545;51.568;6.998;2022-11-11T03:57:52;8.59;91.13
64997;SHT31;51545;51.568;6.998;2022-11-11T04:00:21;8.60;91.14
64997;SHT31;51545;51.568;6.998;2022-11-11T04:02:55;8.46;91.14
64997;SHT31;51545;51.568;6.998;2022-11-11T04:05:46;8.45;91.49
64997;SHT31;51545;51.568;6.998;2022-11-11T04:08:30;8.38;91.78
64997;SHT31;51545;51.568;6.998;2022-11-11T04:11:17;8.41;91.88
64997;SHT31;51545;51.568;6.998;2022-11-11T04:13:48;8.44;91.84
64997;SHT31;51545;51.568;6.998;2022-11-11T04:16:32;8.62;91.25
64997;SHT31;51545;51.568;6.998;2022-11-11T04:18:58;8.65;91.17
64997;SHT31;51545;51.568;6.998;2022-11-11T04:21:42;8.56;91.25
64997;SHT31;51545;51.568;6.998;2022-11-11T04:24:14;8.57;91.36
64997;SHT31;51545;51.568;6.998;2022-11-11T04:27:01;8.52;91.29
64997;SHT31;51545;51.568;6.998;2022-11-11T04:29:28;8.42;91.65
64997;SHT31;51545;51.568;6.998;2022-11-11T04:34:47;8.32;91.91
64997;SHT31;51545;51.568;6.998;2022-11-11T04:37:14;8.29;92.10
64997;SHT31;51545;51.568;6.998;2022-11-11T04:39:40;8.32;91.92
64997;SHT31;51545;51.568;6.998;2022-11-11T04:42:24;8.34;92.01
64997;SHT31;51545;51.568;6.998;2022-11-11T04:44:50;8.37;91.91
64997;SHT31;51545;51.568;6.998;2022-11-11T04:47:35;8.32;91.83
64997;SHT31;51545;51.568;6.998;2022-11-11T04:50:00;8.34;91.94
64997;SHT31;51545;51.568;6.998;2022-11-11T04:52:26;8.29;91.84
64997;SHT31;51545;51.568;6.998;2022-11-11T04:54:55;8.32;91.86
64997;SHT31;51545;51.568;6.998;2022-11-11T04:57:40;8.32;91.81
64997;SHT31;51545;51.568;6.998;2022-11-11T05:00:08;8.32;91.79
64997;SHT31;51545;51.568;6.998;2022-11-11T05:02:34;8.25;91.72
64997;SHT31;51545;51.568;6.998;2022-11-11T05:05:18;8.21;91.92
64997;SHT31;51545;51.568;6.998;2022-11-11T05:07:44;8.21;91.96
64997;SHT31;51545;51.568;6.998;2022-11-11T05:10:28;8.20;92.11
64997;SHT31;51545;51.568;6.998;2022-11-11T05:12:53;8.18;92.17
64997;SHT31;51545;51.568;6.998;2022-11-11T05:15:38;8.16;92.17
64997;SHT31;51545;51.568;6.998;2022-11-11T05:18:22;8.10;92.16
64997;SHT31;51545;51.568;6.998;2022-11-11T05:21:17;8.13;92.18
64997;SHT31;51545;51.568;6.998;2022-11-11T05:23:46;8.09;92.15
64997;SHT31;51545;51.568;6.998;2022-11-11T05:26:31;8.07;92.18
64997;SHT31;51545;51.568;6.998;2022-11-11T05:28:56;8.00;92.17
64997;SHT31;51545;51.568;6.998;2022-11-11T05:31:22;8.00;92.34
64997;SHT31;51545;51.568;6.998;2022-11-11T05:33:48;7.93;92.20
64997;SHT31;51545;51.568;6.998;2022-11-11T05:36:13;7.85;92.17
64997;SHT31;51545;51.568;6.998;2022-11-11T05:38:38;7.75;92.44
64997;SHT31;51545;51.568;6.998;2022-11-11T05:41:04;7.73;92.46
64997;SHT31;51545;51.568;6.998;2022-11-11T05:43:31;7.67;92.50
64997;SHT31;51545;51.568;6.998;2022-11-11T05:45:56;7.66;92.61
64997;SHT31;51545;51.568;6.998;2022-11-11T05:48:22;7.61;92.65
64997;SHT31;51545;51.568;6.998;2022-11-11T05:50:47;7.58;93.02
64997;SHT31;51545;51.568;6.998;2022-11-11T05:53:13;7.58;93.13
64997;SHT31;51545;51.568;6.998;2022-11-11T05:55:38;7.69;93.15
64997;SHT31;51545;51.568;6.998;2022-11-11T05:58:04;7.75;92.85
64997;SHT31;51545;51.568;6.998;2022-11-11T06:00:29;7.92;92.47
64997;SHT31;51545;51.568;6.998;2022-11-11T06:03:00;7.93;92.07
64997;SHT31;51545;51.568;6.998;2022-11-11T06:05:26;8.07;91.68
64997;SHT31;51545;51.568;6.998;2022-11-11T06:07:52;8.16;91.47
64997;SHT31;51545;51.568;6.998;2022-11-11T06:10:18;8.22;91.15
64997;SHT31;51545;51.568;6.998;2022-11-11T06:12:56;8.22;91.05
64997;SHT31;51545;51.568;6.998;2022-11-11T06:15:28;8.22;90.99
64997;SHT31;51545;51.568;6.998;2022-11-11T06:18:07;8.25;91.01
64997;SHT31;51545;51.568;6.998;2022-11-11T06:20:36;8.27;90.98
64997;SHT31;51545;51.568;6.998;2022-11-11T06:23:02;8.27;90.94
64997;SHT31;51545;51.568;6.998;2022-11-11T06:25:29;8.29;90.75
64997;SHT31;51545;51.568;6.998;2022-11-11T06:28:15;8.34;90.62
64997;SHT31;51545;51.568;6.998;2022-11-11T06:30:42;8.38;90.51
64997;SHT31;51545;51.568;6.998;2022-11-11T06:33:08;8.41;90.39
64997;SHT31;51545;51.568;6.998;2022-11-11T06:35:37;8.42;90.39
64997;SHT31;51545;51.568;6.998;2022-11-11T06:38:05;8.38;90.35
64997;SHT31;51545;51.568;6.998;2022-11-11T06:40:31;8.38;90.46
64997;SHT31;51545;51.568;6.998;2022-11-11T06:42:57;8.37;90.61
64997;SHT31;51545;51.568;6.998;2022-11-11T06:45:23;8.37;90.69
64997;SHT31;51545;51.568;6.998;2022-11-11T06:47:49;8.41;90.60
64997;SHT31;51545;51.568;6.998;2022-11-11T06:50:15;8.39;90.68
64997;SHT31;51545;51.568;6.998;2022-11-11T06:52:41;8.45;90.61
64997;SHT31;51545;51.568;6.998;2022-11-11T06:55:06;8.44;90.59
64997;SHT31;51545;51.568;6.998;2022-11-11T06:57:32;8.44;90.68
64997;SHT31;51545;51.568;6.998;2022-11-11T06:59:57;8.50;90.58
64997;SHT31;51545;51.568;6.998;2022-11-11T07:02:23;8.48;90.61
64997;SHT31;51545;51.568;6.998;2022-11-11T07:04:48;8.48;90.51
64997;SHT31;51545;51.568;6.998;2022-11-11T07:07:13;8.48;90.54
64997;SHT31;51545;51.568;6.998;2022-11-11T07:09:40;8.46;90.60
64997;SHT31;51545;51.568;6.998;2022-11-11T07:12:05;8.50;90.47
64997;SHT31;51545;51.568;6.998;2022-11-11T07:14:31;8.52;90.34
64997;SHT31;51545;51.568;6.998;2022-11-11T07:16:57;8.56;90.30
64997;SHT31;51545;51.568;6.998;2022-11-11T07:19:22;8.63;89.98
64997;SHT31;51545;51.568;6.998;2022-11-11T07:21:48;8.65;89.86
64997;SHT31;51545;51.568;6.998;2022-11-11T07:24:13;8.69;89.61
64997;SHT31;51545;51.568;6.998;2022-11-11T07:26:39;8.76;89.47
64997;SHT31;51545;51.568;6.998;2022-11-11T07:29:04;8.90;88.92
64997;SHT31;51545;51.568;6.998;2022-11-11T07:31:29;8.94;88.86
64997;SHT31;51545;51.568;6.998;2022-11-11T07:33:57;8.96;88.95
64997;SHT31;51545;51.568;6.998;2022-11-11T07:36:24;8.94;88.92
64997;SHT31;51545;51.568;6.998;2022-11-11T07:38:50;9.00;88.89
64997;SHT31;51545;51.568;6.998;2022-11-11T07:41:15;9.03;88.81
64997;SHT31;51545;51.568;6.998;2022-11-11T07:43:40;9.07;88.69
64997;SHT31;51545;51.568;6.998;2022-11-11T07:46:06;9.14;88.12
64997;SHT31;51545;51.568;6.998;2022-11-11T07:48:31;9.20;88.09
64997;SHT31;51545;51.568;6.998;2022-11-11T07:50:57;9.22;87.72
64997;SHT31;51545;51.568;6.998;2022-11-11T07:53:23;9.31;87.28
64997;SHT31;51545;51.568;6.998;2022-11-11T07:55:50;9.36;87.20
64997;SHT31;51545;51.568;6.998;2022-11-11T07:58:15;9.42;87.06
64997;SHT31;51545;51.568;6.998;2022-11-11T08:00:41;9.45;86.92
64997;SHT31;51545;51.568;6.998;2022-11-11T08:03:06;9.49;86.70
64997;SHT31;51545;51.568;6.998;2022-11-11T08:05:32;9.60;86.16
64997;SHT31;51545;51.568;6.998;2022-11-11T08:08:04;9.65;86.38
64997;SHT31;51545;51.568;6.998;2022-11-11T08:10:30;9.69;86.21
64997;SHT31;51545;51.568;6.998;2022-11-11T08:12:56;9.71;86.02
64997;SHT31;51545;51.568;6.998;2022-11-11T08:15:40;9.74;86.12
64997;SHT31;51545;51.568;6.998;2022-11-11T08:18:06;9.80;85.70
64997;SHT31;51545;51.568;6.998;2022-11-11T08:20:32;9.93;86.39
64997;SHT31;51545;51.568;6.998;2022-11-11T08:22:58;9.90;85.83
64997;SHT31;51545;51.568;6.998;2022-11-11T08:25:23;9.97;85.64
64997;SHT31;51545;51.568;6.998;2022-11-11T08:27:59;10.03;85.22
64997;SHT31;51545;51.568;6.998;2022-11-11T08:30:26;10.04;85.33
64997;SHT31;51545;51.568;6.998;2022-11-11T08:35:27;10.20;84.87
64997;SHT31;51545;51.568;6.998;2022-11-11T08:37:54;10.22;84.72
64997;SHT31;51545;51.568;6.998;2022-11-11T08:40:21;10.25;84.73
64997;SHT31;51545;51.568;6.998;2022-11-11T08:42:47;10.32;84.06
64997;SHT31;51545;51.568;6.998;2022-11-11T08:45:12;10.35;84.29
64997;SHT31;51545;51.568;6.998;2022-11-11T08:47:38;10.50;82.54
64997;SHT31;51545;51.568;6.998;2022-11-11T08:50:04;10.59;82.59
64997;SHT31;51545;51.568;6.998;2022-11-11T08:52:31;10.62;81.99
64997;SHT31;51545;51.568;6.998;2022-11-11T08:54:56;10.72;81.23
64997;SHT31;51545;51.568;6.998;2022-11-11T08:57:24;10.80;80.71
64997;SHT31;51545;51.568;6.998;2022-11-11T08:59:50;10.84;80.94
64997;SHT31;51545;51.568;6.998;2022-11-11T09:02:15;10.95;80.19
64997;SHT31;51545;51.568;6.998;2022-11-11T09:04:41;10.93;80.18
64997;SHT31;51545;51.568;6.998;2022-11-11T09:07:07;11.00;80.62
64997;SHT31;51545;51.568;6.998;2022-11-11T09:09:33;11.10;80.39
64997;SHT31;51545;51.568;6.998;2022-11-11T09:11:59;11.18;79.35
64997;SHT31;51545;51.568;6.998;2022-11-11T09:14:25;11.19;79.56
64997;SHT31;51545;51.568;6.998;2022-11-11T09:16:51;11.22;79.10
64997;SHT31;51545;51.568;6.998;2022-11-11T09:19:17;11.35;79.28
64997;SHT31;51545;51.568;6.998;2022-11-11T09:21:42;11.48;78.45
64997;SHT31;51545;51.568;6.998;2022-11-11T09:24:08;11.53;78.62
64997;SHT31;51545;51.568;6.998;2022-11-11T09:26:33;11.49;78.66
64997;SHT31;51545;51.568;6.998;2022-11-11T09:28:59;11.55;78.03
64997;SHT31;51545;51.568;6.998;2022-11-11T09:31:24;11.62;77.86
64997;SHT31;51545;51.568;6.998;2022-11-11T09:33:50;11.62;78.20
64997;SHT31;51545;51.568;6.998;2022-11-11T09:36:15;11.71;77.54
64997;SHT31;51545;51.568;6.998;2022-11-11T09:38:41;11.87;77.29
64997;SHT31;51545;51.568;6.998;2022-11-11T09:44:00;11.98;77.03
64997;SHT31;51545;51.568;6.998;2022-11-11T09:51:38;12.21;77.31
64997;SHT31;51545;51.568;6.998;2022-11-11T09:54:13;12.21;76.50
64997;SHT31;51545;51.568;6.998;2022-11-11T09:56:42;12.31;76.23
64997;SHT31;51545;51.568;6.998;2022-11-11T09:59:11;12.31;76.66
64997;SHT31;51545;51.568;6.998;2022-11-11T10:01:44;12.31;76.77
64997;SHT31;51545;51.568;6.998;2022-11-11T10:06:52;12.36;76.20
64997;SHT31;51545;51.568;6.998;2022-11-11T10:09:30;12.43;75.67
64997;SHT31;51545;51.568;6.998;2022-11-11T10:12:12;12.59;75.69
64997;SHT31;51545;51.568;6.998;2022-11-11T10:14:46;12.64;75.70
64997;SHT31;51545;51.568;6.998;2022-11-11T10:20:15;12.67;74.26
64997;SHT31;51545;51.568;6.998;2022-11-11T10:22:48;12.80;74.53
64997;SHT31;51545;51.568;6.998;2022-11-11T10:25:19;12.93;73.64
64997;SHT31;51545;51.568;6.998;2022-11-11T10:27:48;12.95;73.83
64997;SHT31;51545;51.568;6.998;2022-11-11T10:30:22;13.03;72.89
64997;SHT31;51545;51.568;6.998;2022-11-11T10:32:57;13.04;73.08
64997;SHT31;51545;51.568;6.998;2022-11-11T10:35:26;13.18;72.60
64997;SHT31;51545;51.568;6.998;2022-11-11T10:37:58;13.26;72.30
64997;SHT31;51545;51.568;6.998;2022-11-11T10:40:36;13.31;72.63
64997;SHT31;51545;51.568;6.998;2022-11-11T10:43:10;13.31;71.35
64997;SHT31;51545;51.568;6.998;2022-11-11T10:46:33;13.39;71.95
64997;SHT31;51545;51.568;6.998;2022-11-11T10:49:02;13.71;70.90
64997;SHT31;51545;51.568;6.998;2022-11-11T10:54:20;13.88;70.20
64997;SHT31;51545;51.568;6.998;2022-11-11T10:56:56;14.29;68.79
64997;SHT31;51545;51.568;6.998;2022-11-11T10:59:33;14.19;68.66
64997;SHT31;51545;51.568;6.998;2022-11-11T11:02:05;14.42;67.78
64997;SHT31;51545;51.568;6.998;2022-11-11T11:04:54;14.32;68.87
64997;SHT31;51545;51.568;6.998;2022-11-11T11:07:29;14.34;68.91
64997;SHT31;51545;51.568;6.998;2022-11-11T11:10:05;14.59;68.56
64997;SHT31;51545;51.568;6.998;2022-11-11T11:15:34;14.53;68.58
64997;SHT31;51545;51.568;6.998;2022-11-11T11:18:07;14.80;68.69
64997;SHT31;51545;51.568;6.998;2022-11-11T11:20:36;14.88;67.25
64997;SHT31;51545;51.568;6.998;2022-11-11T11:23:02;14.87;67.09
64997;SHT31;51545;51.568;6.998;2022-11-11T11:25:29;14.66;67.19
64997;SHT31;51545;51.568;6.998;2022-11-11T11:28:10;14.81;67.99
64997;SHT31;51545;51.568;6.998;2022-11-11T11:30:37;14.76;67.90
64997;SHT31;51545;51.568;6.998;2022-11-11T11:33:04;14.67;67.48
64997;SHT31;51545;51.568;6.998;2022-11-11T11:35:34;14.50;67.86
64997;SHT31;51545;51.568;6.998;2022-11-11T11:38:02;14.57;67.72
64997;SHT31;51545;51.568;6.998;2022-11-11T11:40:43;14.69;67.28
64997;SHT31;51545;51.568;6.998;2022-11-11T11:43:23;14.77;67.14
64997;SHT31;51545;51.568;6.998;2022-11-11T11:45:57;14.69;67.41
64997;SHT31;51545;51.568;6.998;2022-11-11T11:48:27;14.57;67.38
64997;SHT31;51545;51.568;6.998;2022-11-11T11:51:08;14.81;66.77
64997;SHT31;51545;51.568;6.998;2022-11-11T11:53:55;14.83;66.11
64997;SHT31;51545;51.568;6.998;2022-11-11T11:56:45;15.02;65.93
64997;SHT31;51545;51.568;6.998;2022-11-11T12:02:15;15.32;65.66
64997;SHT31;51545;51.568;6.998;2022-11-11T12:05:24;15.32;65.80
64997;SHT31;51545;51.568;6.998;2022-11-11T12:13:34;15.06;63.55
64997;SHT31;51545;51.568;6.998;2022-11-11T12:27:49;15.19;65.65
64997;SHT31;51545;51.568;6.998;2022-11-11T12:30:22;15.32;65.33
64997;SHT31;51545;51.568;6.998;2022-11-11T12:33:12;15.01;64.69
64997;SHT31;51545;51.568;6.998;2022-11-11T12:35:56;15.01;66.01
64997;SHT31;51545;51.568;6.998;2022-11-11T12:38:57;14.98;65.48
64997;SHT31;51545;51.568;6.998;2022-11-11T12:41:43;15.05;65.85
64997;SHT31;51545;51.568;6.998;2022-11-11T12:58:42;14.87;66.58
64997;SHT31;51545;51.568;6.998;2022-11-11T13:01:19;15.20;67.91
64997;SHT31;51545;51.568;6.998;2022-11-11T13:07:50;15.26;64.80
64997;SHT31;51545;51.568;6.998;2022-11-11T13:12:31;15.33;64.71
64997;SHT31;51545;51.568;6.998;2022-11-11T13:15:19;15.59;63.96
64997;SHT31;51545;51.568;6.998;2022-11-11T13:17:48;15.67;64.12
64997;SHT31;51545;51.568;6.998;2022-11-11T13:22:48;15.87;62.76
64997;SHT31;51545;51.568;6.998;2022-11-11T13:25:20;16.09;64.11
64997;SHT31;51545;51.568;6.998;2022-11-11T13:27:52;16.32;62.59
64997;SHT31;51545;51.568;6.998;2022-11-11T13:33:39;16.39;62.35
64997;SHT31;51545;51.568;6.998;2022-11-11T13:36:08;16.35;61.95
64997;SHT31;51545;51.568;6.998;2022-11-11T13:38:51;16.42;61.29
64997;SHT31;51545;51.568;6.998;2022-11-11T13:41:26;16.29;62.28
64997;SHT31;51545;51.568;6.998;2022-11-11T13:43:55;16.47;62.34
64997;SHT31;51545;51.568;6.998;2022-11-11T13:48:52;15.97;62.46
64997;SHT31;51545;51.568;6.998;2022-11-11T13:53:55;15.57;63.58
64997;SHT31;51545;51.568;6.998;2022-11-11T13:56:29;16.19;63.05
64997;SHT31;51545;51.568;6.998;2022-11-11T13:59:03;16.28;62.21
64997;SHT31;51545;51.568;6.998;2022-11-11T14:01:37;16.24;62.49
64997;SHT31;51545;51.568;6.998;2022-11-11T14:04:08;16.15;62.10
64997;SHT31;51545;51.568;6.998;2022-11-11T14:09:51;15.92;62.58
64997;SHT31;51545;51.568;6.998;2022-11-11T14:12:36;15.42;63.47
64997;SHT31;51545;51.568;6.998;2022-11-11T14:15:03;15.36;63.91
64997;SHT31;51545;51.568;6.998;2022-11-11T14:17:32;15.49;63.16
64997;SHT31;51545;51.568;6.998;2022-11-11T14:20:04;15.40;63.70
64997;SHT31;51545;51.568;6.998;2022-11-11T14:28:29;15.57;63.52
64997;SHT31;51545;51.568;6.998;2022-11-11T14:30:57;15.32;64.03
64997;SHT31;51545;51.568;6.998;2022-11-11T14:57:33;14.57;69.31
64997;SHT31;51545;51.568;6.998;2022-11-11T15:00:04;14.46;70.59
64997;SHT31;51545;51.568;6.998;2022-11-11T15:05:56;14.09;71.48
64997;SHT31;51545;51.568;6.998;2022-11-11T15:11:41;13.91;71.17
64997;SHT31;51545;51.568;6.998;2022-11-11T15:17:25;13.78;73.23
64997;SHT31;51545;51.568;6.998;2022-11-11T15:20:44;13.70;73.26
64997;SHT31;51545;51.568;6.998;2022-11-11T15:22:56;13.52;73.88
64997;SHT31;51545;51.568;6.998;2022-11-11T15:31:51;13.15;75.58
64997;SHT31;51545;51.568;6.998;2022-11-11T15:37:01;12.81;76.82
64997;SHT31;51545;51.568;6.998;2022-11-11T15:42:39;12.45;77.90
64997;SHT31;51545;51.568;6.998;2022-11-11T15:45:18;12.20;78.73
64997;SHT31;51545;51.568;6.998;2022-11-11T15:47:51;12.09;79.04
64997;SHT31;51545;51.568;6.998;2022-11-11T15:50:39;12.01;79.29
64997;SHT31;51545;51.568;6.998;2022-11-11T15:53:03;11.73;80.37
64997;SHT31;51545;51.568;6.998;2022-11-11T15:55:30;11.56;80.79
64997;SHT31;51545;51.568;6.998;2022-11-11T15:58:15;11.32;81.64
64997;SHT31;51545;51.568;6.998;2022-11-11T16:00:42;11.18;82.08
64997;SHT31;51545;51.568;6.998;2022-11-11T16:03:30;11.14;82.54
64997;SHT31;51545;51.568;6.998;2022-11-11T16:06:01;11.05;82.61
64997;SHT31;51545;51.568;6.998;2022-11-11T16:08:29;11.03;83.05
64997;SHT31;51545;51.568;6.998;2022-11-11T16:10:56;10.95;82.86
64997;SHT31;51545;51.568;6.998;2022-11-11T16:13:34;10.93;82.85
64997;SHT31;51545;51.568;6.998;2022-11-11T16:16:04;10.90;82.87
64997;SHT31;51545;51.568;6.998;2022-11-11T16:21:07;10.60;83.75
64997;SHT31;51545;51.568;6.998;2022-11-11T16:23:37;10.49;84.47
64997;SHT31;51545;51.568;6.998;2022-11-11T16:26:05;10.38;84.29
64997;SHT31;51545;51.568;6.998;2022-11-11T16:28:53;10.29;84.91
64997;SHT31;51545;51.568;6.998;2022-11-11T16:31:20;10.20;85.00
64997;SHT31;51545;51.568;6.998;2022-11-11T16:33:46;10.15;85.33
64997;SHT31;51545;51.568;6.998;2022-11-11T16:36:12;10.10;85.65
64997;SHT31;51545;51.568;6.998;2022-11-11T16:38:38;10.04;85.47
64997;SHT31;51545;51.568;6.998;2022-11-11T16:41:04;9.95;85.94
64997;SHT31;51545;51.568;6.998;2022-11-11T16:43:47;9.83;86.12
64997;SHT31;51545;51.568;6.998;2022-11-11T16:46:13;9.83;86.08
64997;SHT31;51545;51.568;6.998;2022-11-11T16:48:40;9.79;86.25
64997;SHT31;51545;51.568;6.998;2022-11-11T16:51:14;9.67;86.41
64997;SHT31;51545;51.568;6.998;2022-11-11T16:54:08;9.65;86.67
64997;SHT31;51545;51.568;6.998;2022-11-11T16:56:43;9.57;86.48
64997;SHT31;51545;51.568;6.998;2022-11-11T17:02:23;9.50;86.79
64997;SHT31;51545;51.568;6.998;2022-11-11T17:04:56;9.43;86.85
64997;SHT31;51545;51.568;6.998;2022-11-11T17:10:39;9.24;87.16
64997;SHT31;51545;51.568;6.998;2022-11-11T17:12:47;9.12;87.78
64997;SHT31;51545;51.568;6.998;2022-11-11T17:15:16;9.08;88.12
64997;SHT31;51545;51.568;6.998;2022-11-11T17:17:43;8.99;88.45
64997;SHT31;51545;51.568;6.998;2022-11-11T17:20:16;8.93;88.62
64997;SHT31;51545;51.568;6.998;2022-11-11T17:22:50;8.86;88.85
64997;SHT31;51545;51.568;6.998;2022-11-11T17:25:17;8.81;88.91
64997;SHT31;51545;51.568;6.998;2022-11-11T17:27:43;8.81;88.72
64997;SHT31;51545;51.568;6.998;2022-11-11T17:30:10;8.81;89.00
64997;SHT31;51545;51.568;6.998;2022-11-11T17:32:37;8.80;88.85
64997;SHT31;51545;51.568;6.998;2022-11-11T17:35:02;8.77;88.70
64997;SHT31;51545;51.568;6.998;2022-11-11T17:37:28;8.76;88.57
64997;SHT31;51545;51.568;6.998;2022-11-11T17:39:53;8.66;88.44
64997;SHT31;51545;51.568;6.998;2022-11-11T17:42:19;8.53;89.09
64997;SHT31;51545;51.568;6.998;2022-11-11T17:44:44;8.49;89.33
64997;SHT31;51545;51.568;6.998;2022-11-11T17:47:10;8.42;89.23
64997;SHT31;51545;51.568;6.998;2022-11-11T17:49:35;8.41;89.51
64997;SHT31;51545;51.568;6.998;2022-11-11T17:52:00;8.38;89.24
64997;SHT31;51545;51.568;6.998;2022-11-11T17:54:26;8.25;89.92
64997;SHT31;51545;51.568;6.998;2022-11-11T17:56:53;8.28;89.95
64997;SHT31;51545;51.568;6.998;2022-11-11T17:59:18;8.24;89.87
64997;SHT31;51545;51.568;6.998;2022-11-11T18:01:44;8.18;89.96
64997;SHT31;51545;51.568;6.998;2022-11-11T18:04:09;8.18;89.88
64997;SHT31;51545;51.568;6.998;2022-11-11T18:06:35;8.16;89.99
64997;SHT31;51545;51.568;6.998;2022-11-11T18:09:00;8.07;89.79
64997;SHT31;51545;51.568;6.998;2022-11-11T18:11:26;8.01;90.45
64997;SHT31;51545;51.568;6.998;2022-11-11T18:13:51;7.99;90.67
64997;SHT31;51545;51.568;6.998;2022-11-11T18:16:18;8.00;90.38
64997;SHT31;51545;51.568;6.998;2022-11-11T18:18:44;7.97;90.48
64997;SHT31;51545;51.568;6.998;2022-11-11T18:21:10;7.97;90.49
64997;SHT31;51545;51.568;6.998;2022-11-11T18:23:36;7.96;90.25
64997;SHT31;51545;51.568;6.998;2022-11-11T18:26:03;7.86;90.60
64997;SHT31;51545;51.568;6.998;2022-11-11T18:28:33;7.82;90.76
64997;SHT31;51545;51.568;6.998;2022-11-11T18:31:03;7.70;90.92